Time;durP1;ratioP1;P1;durP2;ratioP2;P2;SDS_P1;SDS_P2;PMS_P1;PMS_P2;Temp;Humidity;BMP_temperature;BMP_pressure;BME280_temperature;BME280_humidity;BME280_pressure;Samples;Min_cycle;Max_cycle;Signal;HPM_P1;HPM_P2
2022/06/14 00:02:35;;;;;;;4.03;3.10;;;12.90;99.90;;;;;;5081951;28;20481;-76
2022/06/14 00:05:02;;;;;;;3.93;3.53;;;12.80;99.90;;;;;;5082237;28;20443;-75
2022/06/14 00:07:28;;;;;;;4.00;3.53;;;12.80;99.90;;;;;;5078773;28;20451;-76
2022/06/14 00:09:55;;;;;;;5.90;3.63;;;12.70;99.90;;;;;;5078689;28;20471;-75
2022/06/14 00:12:23;;;;;;;5.13;3.50;;;12.70;99.90;;;;;;5082025;28;20507;-76
2022/06/14 00:14:50;;;;;;;4.80;3.20;;;12.60;99.90;;;;;;5080925;28;20956;-77
2022/06/14 00:17:16;;;;;;;3.33;2.60;;;12.60;99.90;;;;;;5087344;28;20447;-76
2022/06/14 00:19:43;;;;;;;3.10;2.60;;;12.60;99.90;;;;;;5081602;28;20472;-75
2022/06/14 00:22:10;;;;;;;8.50;3.07;;;12.60;99.90;;;;;;5083271;28;20455;-76
2022/06/14 00:24:37;;;;;;;5.10;3.23;;;12.60;99.90;;;;;;5080128;28;20845;-75
2022/06/14 00:27:04;;;;;;;8.27;3.00;;;12.60;99.90;;;;;;5076587;28;20448;-76
2022/06/14 00:29:33;;;;;;;4.27;2.97;;;12.50;99.90;;;;;;5088733;28;20511;-75
2022/06/14 00:31:59;;;;;;;7.90;3.10;;;12.50;99.90;;;;;;5079498;28;20452;-76
2022/06/14 00:34:26;;;;;;;4.80;2.70;;;12.50;99.90;;;;;;5081529;28;20471;-75
2022/06/14 00:36:55;;;;;;;2.87;2.57;;;12.50;99.90;;;;;;5077294;28;20888;-75
2022/06/14 00:39:21;;;;;;;6.20;3.40;;;12.40;99.90;;;;;;5090118;28;20455;-76
2022/06/14 00:41:50;;;;;;;3.47;3.17;;;12.40;99.90;;;;;;5086600;28;20446;-76
2022/06/14 00:44:20;;;;;;;3.67;3.03;;;11.90;99.90;;;;;;5079984;28;20503;-75
2022/06/14 00:46:56;;;;;;;4.40;3.30;;;11.50;99.90;;;;;;5075675;28;20854;-76
2022/06/14 00:49:29;;;;;;;4.67;3.40;;;11.30;99.90;;;;;;5077972;28;20950;-75
2022/06/14 00:52:00;;;;;;;6.43;4.17;;;11.10;99.90;;;;;;5072138;28;20455;-75
2022/06/14 00:54:30;;;;;;;4.10;3.70;;;10.90;99.90;;;;;;5073181;28;20475;-75
2022/06/14 00:57:01;;;;;;;7.67;3.57;;;10.80;99.90;;;;;;5076408;28;20456;-76
2022/06/14 00:59:32;;;;;;;6.73;4.20;;;10.80;99.90;;;;;;5078808;28;20448;-76
2022/06/14 01:02:09;;;;;;;4.13;3.70;;;10.90;99.90;;;;;;5077399;28;20959;-75
2022/06/14 01:04:36;;;;;;;7.63;4.03;;;10.80;99.90;;;;;;5071640;28;20439;-75
2022/06/14 01:07:09;;;;;;;3.60;3.40;;;10.90;99.90;;;;;;5072133;28;20799;-75
2022/06/14 01:09:41;;;;;;;5.03;3.90;;;10.90;99.90;;;;;;5071946;28;20460;-75
2022/06/14 01:12:12;;;;;;;7.97;4.10;;;11.00;99.90;;;;;;5071646;28;20456;-75
2022/06/14 01:14:44;;;;;;;4.37;3.97;;;11.00;99.90;;;;;;5071339;28;20990;-76
2022/06/14 01:17:15;;;;;;;4.40;3.57;;;11.00;99.90;;;;;;5071855;28;20482;-75
2022/06/14 01:19:42;;;;;;;5.20;4.00;;;11.10;99.90;;;;;;5081617;28;20887;-75
2022/06/14 01:22:27;;;;;;;3.50;3.20;;;11.20;99.90;;;;;;5076384;28;20501;-76
2022/06/14 01:24:54;;;;;;;8.77;4.13;;;11.20;99.90;;;;;;5074883;28;20451;-75
2022/06/14 01:27:23;;;;;;;4.73;3.47;;;11.20;99.90;;;;;;5082945;28;20888;-76
2022/06/14 01:30:00;;;;;;;4.10;3.50;;;11.20;99.90;;;;;;5082539;28;20522;-75
2022/06/14 01:32:30;;;;;;;3.60;3.20;;;11.20;99.90;;;;;;5083159;28;20438;-76
2022/06/14 01:35:01;;;;;;;8.10;4.20;;;11.20;99.90;;;;;;5079466;28;20471;-76
2022/06/14 01:37:30;;;;;;;7.23;3.30;;;11.20;99.90;;;;;;5083265;28;20869;-75
2022/06/14 01:39:58;;;;;;;4.47;3.90;;;11.20;99.90;;;;;;5087438;28;20477;-75
2022/06/14 01:42:31;;;;;;;3.73;3.43;;;11.20;99.90;;;;;;5080273;28;20572;-76
2022/06/14 01:45:04;;;;;;;4.27;3.20;;;11.30;99.90;;;;;;5075016;28;20505;-76
2022/06/14 01:47:36;;;;;;;7.93;3.50;;;11.20;99.90;;;;;;5082255;28;20949;-75
2022/06/14 01:53:16;;;;;;;6.87;3.53;;;11.20;99.90;;;;;;5081396;28;20426;-75
2022/06/14 01:55:48;;;;;;;3.30;3.00;;;11.20;99.90;;;;;;5088982;28;20504;-75
2022/06/14 01:58:22;;;;;;;6.40;3.90;;;11.10;99.90;;;;;;5081723;28;20501;-76
2022/06/14 02:00:54;;;;;;;4.47;3.67;;;11.10;99.90;;;;;;5088215;28;20481;-76
2022/06/14 02:06:18;;;;;;;5.30;3.60;;;11.20;99.90;;;;;;5075537;28;21053;-75
2022/06/14 02:08:53;;;;;;;6.30;3.43;;;11.10;99.90;;;;;;5088827;28;20473;-76
2022/06/14 02:11:26;;;;;;;4.20;3.80;;;11.10;99.90;;;;;;5085408;28;20475;-75
2022/06/14 02:13:57;;;;;;;4.70;3.83;;;11.10;99.90;;;;;;5084549;28;20490;-75
2022/06/14 02:16:28;;;;;;;4.73;3.70;;;11.00;99.90;;;;;;5084658;28;20456;-76
2022/06/14 02:19:01;;;;;;;5.20;3.60;;;11.00;99.90;;;;;;5079464;28;20971;-76
2022/06/14 02:21:33;;;;;;;3.43;3.13;;;11.00;99.90;;;;;;5078571;28;20475;-75
2022/06/14 02:24:09;;;;;;;4.67;3.53;;;11.00;99.90;;;;;;5085070;28;20447;-76
2022/06/14 02:26:38;;;;;;;6.97;3.30;;;11.00;99.90;;;;;;5070852;28;20543;-75
2022/06/14 02:29:10;;;;;;;6.03;3.07;;;10.90;99.90;;;;;;5071886;28;20452;-76
2022/06/14 02:31:41;;;;;;;5.80;3.47;;;10.90;99.90;;;;;;5085977;28;20470;-75
2022/06/14 02:34:13;;;;;;;6.43;3.60;;;10.90;99.90;;;;;;5079637;28;20873;-75
2022/06/14 02:36:46;;;;;;;9.87;3.70;;;10.90;99.90;;;;;;5075106;28;20450;-76
2022/06/14 02:39:19;;;;;;;5.30;3.37;;;10.90;99.90;;;;;;5084329;28;20494;-76
2022/06/14 02:41:50;;;;;;;4.97;3.90;;;10.80;99.90;;;;;;5084085;28;20843;-76
2022/06/14 02:44:23;;;;;;;3.73;3.30;;;10.80;99.90;;;;;;5070058;28;20447;-76
2022/06/14 02:46:54;;;;;;;7.20;3.40;;;10.60;99.90;;;;;;5070324;28;20497;-76
2022/06/14 02:49:26;;;;;;;6.30;3.33;;;10.60;99.90;;;;;;5075994;28;20463;-75
2022/06/14 02:51:59;;;;;;;4.23;3.07;;;10.50;99.90;;;;;;5078365;28;20490;-76
2022/06/14 02:54:31;;;;;;;9.30;3.60;;;10.40;99.90;;;;;;5080639;28;20472;-75
2022/06/14 02:57:02;;;;;;;7.20;3.60;;;10.40;99.90;;;;;;5077007;28;20501;-76
2022/06/14 02:59:34;;;;;;;4.20;3.37;;;10.30;99.90;;;;;;5075571;28;20500;-75
2022/06/14 03:02:03;;;;;;;3.33;3.07;;;10.30;99.90;;;;;;5082667;28;20937;-75
2022/06/14 03:04:34;;;;;;;4.73;3.40;;;10.20;99.90;;;;;;5088015;28;20443;-75
2022/06/14 03:07:06;;;;;;;3.43;3.17;;;10.20;99.90;;;;;;5081984;28;20446;-76
2022/06/14 03:09:37;;;;;;;7.23;3.50;;;10.20;99.90;;;;;;5077764;28;20520;-76
2022/06/14 03:12:14;;;;;;;11.07;3.90;;;10.20;99.90;;;;;;5086078;28;20825;-75
2022/06/14 03:14:53;;;;;;;10.00;3.77;;;10.10;99.90;;;;;;5082582;28;21250;-75
2022/06/14 03:17:26;;;;;;;4.20;3.30;;;10.10;99.90;;;;;;5079236;28;20957;-75
2022/06/14 03:20:02;;;;;;;7.90;3.40;;;10.10;99.90;;;;;;5078725;28;20889;-76
2022/06/14 03:22:45;;;;;;;3.50;3.20;;;10.00;99.90;;;;;;5075716;28;21029;-75
2022/06/14 03:25:21;;;;;;;8.53;5.07;;;10.00;99.90;;;;;;5086021;28;20451;-75
2022/06/14 03:27:54;;;;;;;5.73;3.73;;;9.90;99.90;;;;;;5075230;28;20504;-75
2022/06/14 03:30:27;;;;;;;5.87;3.70;;;9.90;99.90;;;;;;5084775;28;20475;-75
2022/06/14 03:33:00;;;;;;;11.70;3.37;;;10.00;99.90;;;;;;5078321;28;20458;-75
2022/06/14 03:35:31;;;;;;;7.23;4.10;;;10.00;99.90;;;;;;5073224;28;20475;-75
2022/06/14 03:38:03;;;;;;;12.43;3.40;;;10.10;99.90;;;;;;5080530;28;20454;-76
2022/06/14 03:40:31;;;;;;;6.93;3.27;;;10.10;99.90;;;;;;5081450;28;21191;-75
2022/06/14 03:43:01;;;;;;;3.80;3.50;;;10.10;99.90;;;;;;5077853;28;20958;-75
2022/06/14 03:45:36;;;;;;;8.80;4.03;;;10.20;99.90;;;;;;5073695;28;20471;-75
2022/06/14 03:48:04;;;;;;;9.10;3.77;;;10.20;99.90;;;;;;5077335;28;21125;-75
2022/06/14 03:50:39;;;;;;;6.63;3.30;;;10.20;99.90;;;;;;5072919;28;20486;-75
2022/06/14 03:53:16;;;;;;;7.10;3.60;;;10.20;99.90;;;;;;5074735;28;20520;-76
2022/06/14 03:55:58;;;;;;;4.80;3.80;;;10.20;99.90;;;;;;5072967;28;20497;-75
2022/06/14 03:58:36;;;;;;;7.23;3.67;;;10.20;99.90;;;;;;5080029;28;20451;-78
2022/06/14 04:01:11;;;;;;;6.17;3.53;;;10.20;99.90;;;;;;5080819;28;20520;-79
2022/06/14 04:04:13;;;;;;;6.83;4.23;;;10.20;99.90;;;;;;5084364;28;20533;-80
2022/06/14 04:06:50;;;;;;;4.10;3.70;;;10.20;99.90;;;;;;5070403;28;20454;-79
2022/06/14 04:09:27;;;;;;;6.20;4.53;;;10.20;99.90;;;;;;5084135;28;20450;-80
2022/06/14 04:12:06;;;;;;;7.67;3.97;;;10.20;99.90;;;;;;5089082;28;20511;-79
2022/06/14 04:14:45;;;;;;;4.93;4.00;;;10.20;99.90;;;;;;5077898;28;21021;-80
2022/06/14 04:17:19;;;;;;;7.90;4.00;;;10.20;99.90;;;;;;5081033;28;20444;-80
2022/06/14 04:19:58;;;;;;;4.27;3.63;;;10.30;99.90;;;;;;5084523;28;20474;-80
2022/06/14 04:22:36;;;;;;;7.87;4.57;;;10.30;99.90;;;;;;5078021;28;21120;-80
2022/06/14 04:25:08;;;;;;;7.20;4.07;;;10.30;99.90;;;;;;5078916;28;20444;-80
2022/06/14 04:27:40;;;;;;;8.27;4.20;;;10.30;99.90;;;;;;5077694;28;20508;-79
2022/06/14 04:30:13;;;;;;;8.13;4.00;;;10.40;99.90;;;;;;5087515;28;20509;-79
2022/06/14 04:32:45;;;;;;;10.13;4.60;;;10.40;99.90;;;;;;5085479;28;20515;-79
2022/06/14 04:35:17;;;;;;;10.77;4.07;;;10.40;99.90;;;;;;5084923;28;21170;-79
2022/06/14 04:37:49;;;;;;;7.40;4.23;;;10.50;99.90;;;;;;5085831;28;20463;-78
2022/06/14 04:40:20;;;;;;;7.53;4.50;;;10.50;99.90;;;;;;5089588;28;20476;-80
2022/06/14 04:42:54;;;;;;;10.33;4.90;;;10.70;99.90;;;;;;5076694;28;20498;-80
2022/06/14 04:45:26;;;;;;;10.10;4.70;;;10.70;99.90;;;;;;5072646;28;20458;-79
2022/06/14 04:47:58;;;;;;;10.47;4.60;;;10.70;99.90;;;;;;5082880;28;20451;-79
2022/06/14 04:50:30;;;;;;;10.83;4.70;;;10.70;99.90;;;;;;5079031;28;20528;-79
2022/06/14 04:53:02;;;;;;;8.43;4.60;;;10.80;99.90;;;;;;5077170;28;20464;-79
2022/06/14 04:55:34;;;;;;;11.03;5.00;;;10.90;99.90;;;;;;5080935;28;20480;-78
2022/06/14 04:58:10;;;;;;;8.07;5.03;;;10.90;99.90;;;;;;5081491;28;20516;-79
2022/06/14 05:00:42;;;;;;;5.33;4.77;;;11.10;99.90;;;;;;5077435;28;20467;-79
2022/06/14 05:03:14;;;;;;;5.40;4.50;;;11.20;99.90;;;;;;5084222;28;20517;-79
2022/06/14 05:05:45;;;;;;;4.67;4.00;;;11.40;99.90;;;;;;5080821;28;20503;-78
2022/06/14 05:08:17;;;;;;;5.63;3.90;;;11.50;99.90;;;;;;5081087;28;20447;-78
2022/06/14 05:10:48;;;;;;;5.87;4.37;;;11.60;99.90;;;;;;5082093;28;20467;-78
2022/06/14 05:13:23;;;;;;;5.40;4.27;;;11.70;99.90;;;;;;5073875;28;20480;-79
2022/06/14 05:15:55;;;;;;;6.40;4.20;;;11.90;99.90;;;;;;5078613;28;20485;-79
2022/06/14 05:18:27;;;;;;;5.33;4.07;;;12.00;99.90;;;;;;5087096;28;20527;-79
2022/06/14 05:21:00;;;;;;;8.87;4.50;;;12.20;99.90;;;;;;5078353;28;20921;-79
2022/06/14 05:23:34;;;;;;;7.60;4.13;;;12.30;99.90;;;;;;5086641;28;20448;-80
2022/06/14 05:26:05;;;;;;;4.80;3.63;;;12.50;99.90;;;;;;5080295;28;20530;-80
2022/06/14 05:28:38;;;;;;;4.63;3.63;;;12.70;99.90;;;;;;5079740;28;20451;-79
2022/06/14 05:31:14;;;;;;;6.27;4.00;;;12.90;99.90;;;;;;5075806;28;20899;-79
2022/06/14 05:33:50;;;;;;;4.60;3.30;;;13.10;99.90;;;;;;5078478;28;20450;-79
2022/06/14 05:36:20;;;;;;;6.47;3.40;;;13.30;99.90;;;;;;5076301;28;20527;-79
2022/06/14 05:38:53;;;;;;;8.93;3.43;;;13.50;99.90;;;;;;5076205;28;20451;-80
2022/06/14 05:41:28;;;;;;;4.23;2.90;;;13.60;99.90;;;;;;5087207;28;20893;-79
2022/06/14 05:44:03;;;;;;;4.57;2.77;;;13.80;99.90;;;;;;5082638;28;20508;-79
2022/06/14 05:46:34;;;;;;;7.33;3.20;;;14.10;99.90;;;;;;5081403;28;20867;-79
2022/06/14 05:49:07;;;;;;;4.60;2.90;;;14.20;99.90;;;;;;5084646;28;20443;-79
2022/06/14 05:51:40;;;;;;;12.53;3.30;;;14.40;99.90;;;;;;5084073;28;20561;-80
2022/06/14 05:54:13;;;;;;;6.50;3.40;;;14.60;99.90;;;;;;5090362;28;20447;-84
2022/06/14 05:56:46;;;;;;;5.10;3.20;;;14.80;99.90;;;;;;5096000;28;20989;-84
2022/06/14 05:59:21;;;;;;;7.00;3.63;;;15.00;99.90;;;;;;5094812;28;20957;-85
2022/06/14 06:01:54;;;;;;;6.53;3.50;;;15.10;99.90;;;;;;5093302;28;20973;-80
2022/06/14 06:04:26;;;;;;;4.60;3.50;;;15.20;99.90;;;;;;5094629;28;20459;-80
2022/06/14 06:06:58;;;;;;;5.90;3.60;;;15.30;99.90;;;;;;5094157;28;20450;-80
2022/06/14 06:09:29;;;;;;;5.70;2.80;;;15.40;99.90;;;;;;5093817;28;20447;-80
2022/06/14 06:12:02;;;;;;;5.97;2.73;;;15.60;99.90;;;;;;5093608;28;20512;-80
2022/06/14 06:14:34;;;;;;;5.30;2.93;;;15.60;99.90;;;;;;5074210;28;20474;-80
2022/06/14 06:17:05;;;;;;;5.57;2.80;;;15.70;99.90;;;;;;5075435;28;20475;-80
2022/06/14 06:19:35;;;;;;;4.63;3.00;;;15.90;99.90;;;;;;5086340;28;20931;-79
2022/06/14 06:22:07;;;;;;;4.70;2.73;;;16.00;99.90;;;;;;5091491;28;20521;-79
2022/06/14 06:24:39;;;;;;;3.57;3.10;;;16.20;99.90;;;;;;5094496;28;20433;-80
2022/06/14 06:27:10;;;;;;;4.23;2.97;;;16.40;99.90;;;;;;5094851;28;20504;-80
2022/06/14 06:29:47;;;;;;;6.80;3.00;;;16.50;99.90;;;;;;5094850;28;20819;-80
2022/06/14 06:32:14;;;;;;;4.20;2.87;;;16.60;99.90;;;;;;5092096;28;20461;-80
2022/06/14 06:34:42;;;;;;;4.23;2.90;;;16.70;99.90;;;;;;5096339;28;20500;-80
2022/06/14 06:37:14;;;;;;;3.77;2.90;;;16.90;99.90;;;;;;5095412;28;20468;-79
2022/06/14 06:39:46;;;;;;;6.83;2.33;;;17.00;99.90;;;;;;5097445;28;20466;-81
2022/06/14 06:42:21;;;;;;;11.50;2.90;;;17.10;99.90;;;;;;5092448;28;20497;-80
2022/06/14 06:44:55;;;;;;;10.53;3.30;;;17.20;99.90;;;;;;5097803;28;20433;-80
2022/06/14 06:47:28;;;;;;;6.97;2.90;;;17.30;99.90;;;;;;5095607;28;20474;-79
2022/06/14 06:50:09;;;;;;;7.17;2.67;;;17.30;99.90;;;;;;5097469;28;20449;-79
2022/06/14 06:52:43;;;;;;;5.47;2.50;;;17.40;99.90;;;;;;5092370;28;20935;-79
2022/06/14 06:55:15;;;;;;;7.20;3.13;;;17.60;99.90;;;;;;5093863;28;20425;-79
2022/06/14 06:57:46;;;;;;;9.50;3.20;;;17.80;99.90;;;;;;5097364;28;20450;-80
2022/06/14 07:00:17;;;;;;;46.30;5.70;;;17.80;99.90;;;;;;5096740;28;21069;-80
2022/06/14 07:02:48;;;;;;;5.87;2.27;;;18.10;99.90;;;;;;5094460;28;20417;-79
2022/06/14 07:05:16;;;;;;;7.73;2.60;;;18.30;99.90;;;;;;5094794;28;20465;-79
2022/06/14 07:07:50;;;;;;;4.90;2.80;;;18.40;99.90;;;;;;5098008;28;20504;-80
2022/06/14 07:10:23;;;;;;;5.80;2.90;;;18.50;99.90;;;;;;5098600;28;20425;-80
2022/06/14 07:12:54;;;;;;;5.13;2.57;;;18.60;99.90;;;;;;5093110;28;20478;-80
2022/06/14 07:15:27;;;;;;;8.70;2.60;;;18.80;99.90;;;;;;5099007;28;20977;-80
2022/06/14 07:17:58;;;;;;;5.30;2.43;;;18.90;99.90;;;;;;5097670;28;20429;-79
2022/06/14 07:20:36;;;;;;;9.00;2.87;;;19.00;99.90;;;;;;5095115;28;20523;-80
2022/06/14 07:23:10;;;;;;;9.13;2.67;;;19.40;99.90;;;;;;5095488;28;20469;-80
2022/06/14 07:25:44;;;;;;;8.27;2.40;;;19.70;99.90;;;;;;5105859;28;20469;-80
2022/06/14 07:28:16;;;;;;;8.77;3.10;;;19.90;99.90;;;;;;5105403;28;20458;-80
2022/06/14 07:30:49;;;;;;;4.70;2.43;;;20.10;99.90;;;;;;5104745;28;20523;-80
2022/06/14 07:33:17;;;;;;;5.73;3.00;;;20.20;99.90;;;;;;5096133;28;20474;-80
2022/06/14 07:35:50;;;;;;;6.20;2.43;;;20.30;99.90;;;;;;5110116;28;20478;-80
2022/06/14 07:38:20;;;;;;;7.47;2.70;;;20.40;99.90;;;;;;5109725;28;20447;-80
2022/06/14 07:40:52;;;;;;;7.80;2.80;;;20.60;99.90;;;;;;5109898;28;20500;-80
2022/06/14 07:43:25;;;;;;;5.53;2.40;;;20.70;99.90;;;;;;5106851;28;20554;-80
2022/06/14 07:45:53;;;;;;;4.43;2.70;;;20.90;99.90;;;;;;5102073;28;20442;-80
2022/06/14 07:48:29;;;;;;;3.77;2.30;;;21.20;99.90;;;;;;5101846;28;20454;-80
2022/06/14 07:51:01;;;;;;;8.50;2.30;;;21.20;99.90;;;;;;5101874;28;20466;-79
2022/06/14 07:53:35;;;;;;;8.87;2.50;;;21.10;99.90;;;;;;5098746;28;20473;-79
2022/06/14 07:56:06;;;;;;;6.60;2.47;;;21.00;99.90;;;;;;5106768;28;20500;-80
2022/06/14 07:58:41;;;;;;;7.80;2.40;;;20.60;99.90;;;;;;5107203;28;20439;-80
2022/06/14 08:01:13;;;;;;;6.23;2.23;;;20.30;99.90;;;;;;5102411;28;20985;-80
2022/06/14 08:03:47;;;;;;;11.03;2.50;;;20.20;99.90;;;;;;5104292;28;20439;-80
2022/06/14 08:06:16;;;;;;;3.67;2.10;;;20.10;99.90;;;;;;5108354;28;20530;-80
2022/06/14 08:08:45;;;;;;;10.43;2.13;;;20.30;99.90;;;;;;5107688;28;20480;-80
2022/06/14 08:11:18;;;;;;;5.10;2.97;;;20.60;99.90;;;;;;5101252;28;20501;-80
2022/06/14 08:13:52;;;;;;;4.57;2.03;;;21.10;99.90;;;;;;5104872;28;20962;-79
2022/06/14 08:16:22;;;;;;;10.33;2.23;;;21.30;99.90;;;;;;5101423;28;20884;-79
2022/06/14 08:18:53;;;;;;;7.17;2.20;;;21.30;99.90;;;;;;5100496;28;20883;-79
2022/06/14 08:21:30;;;;;;;8.20;2.30;;;20.90;99.90;;;;;;5101290;28;20482;-79
2022/06/14 08:24:03;;;;;;;7.63;2.50;;;21.00;99.90;;;;;;5098002;28;20453;-80
2022/06/14 08:26:34;;;;;;;4.53;2.40;;;21.00;99.90;;;;;;5099900;28;20447;-79
2022/06/14 08:29:08;;;;;;;4.23;2.13;;;21.20;99.90;;;;;;5106611;28;20450;-80
2022/06/14 08:31:41;;;;;;;6.03;2.10;;;21.40;99.90;;;;;;5104856;28;20513;-80
2022/06/14 08:34:13;;;;;;;4.43;2.30;;;21.70;99.90;;;;;;5105380;28;20450;-80
2022/06/14 08:36:47;;;;;;;4.77;2.20;;;21.80;99.90;;;;;;5105665;28;21107;-79
2022/06/14 08:39:22;;;;;;;4.17;2.10;;;21.90;99.90;;;;;;5100722;28;20450;-80
2022/06/14 08:41:59;;;;;;;7.90;2.23;;;22.20;99.90;;;;;;5103407;28;20449;-80
2022/06/14 08:44:31;;;;;;;7.40;2.00;;;22.20;99.90;;;;;;5079373;28;20447;-80
2022/06/14 08:47:12;;;;;;;4.73;1.90;;;22.40;99.90;;;;;;5085342;28;20448;-80
2022/06/14 08:49:47;;;;;;;7.77;2.70;;;22.60;99.90;;;;;;5078901;28;20487;-79
2022/06/14 08:52:49;;;;;;;5.93;2.80;;;22.50;99.90;;;;;;5086958;28;20450;-79
2022/06/14 08:55:41;;;;;;;6.00;2.20;;;22.50;99.90;;;;;;5102429;28;20458;-79
2022/06/14 08:58:36;;;;;;;5.73;2.20;;;22.20;99.90;;;;;;5102525;28;20446;-79
2022/06/14 09:01:10;;;;;;;8.23;2.40;;;22.60;99.90;;;;;;5099664;28;20471;-80
2022/06/14 09:04:20;;;;;;;6.83;2.10;;;23.00;99.90;;;;;;5096604;28;20469;-79
2022/06/14 09:07:19;;;;;;;2.10;1.90;;;23.30;99.90;;;;;;5099356;28;20504;-80
2022/06/14 09:10:04;;;;;;;5.97;2.50;;;23.60;99.90;;;;;;5098644;28;21021;-80
2022/06/14 09:13:01;;;;;;;8.23;2.20;;;23.60;99.90;;;;;;5096997;28;20438;-80
2022/06/14 09:16:08;;;;;;;10.17;2.03;;;24.00;99.90;;;;;;5105443;28;20448;-80
2022/06/14 09:18:45;;;;;;;9.70;2.67;;;24.20;99.90;;;;;;5098576;28;20946;-79
2022/06/14 09:21:21;;;;;;;7.53;2.83;;;24.30;99.90;;;;;;5098596;28;20470;-79
2022/06/14 09:24:05;;;;;;;4.17;2.07;;;24.40;99.90;;;;;;5095753;28;20452;-79
2022/06/14 09:26:46;;;;;;;6.40;2.20;;;24.50;99.90;;;;;;5098499;28;20454;-79
2022/06/14 09:29:43;;;;;;;5.63;2.10;;;24.50;99.90;;;;;;5098541;28;20442;-79
2022/06/14 09:33:15;;;;;;;15.30;2.20;;;24.90;99.90;;;;;;5095395;28;20451;-80
2022/06/14 09:36:18;;;;;;;8.47;2.10;;;25.10;99.90;;;;;;5054684;28;20536;-80
2022/06/14 09:39:07;;;;;;;14.13;2.70;;;25.40;99.90;;;;;;5055433;28;20448;-79
2022/06/14 09:41:52;;;;;;;8.20;3.40;;;25.50;99.90;;;;;;5077978;28;20539;-79
2022/06/14 09:44:54;;;;;;;4.37;2.10;;;25.20;99.10;;;;;;5097102;28;20477;-79
2022/06/14 09:47:53;;;;;;;3.33;2.40;;;25.10;99.90;;;;;;5097842;28;20450;-80
2022/06/14 09:50:49;;;;;;;5.40;2.10;;;25.20;99.90;;;;;;5040250;28;20465;-80
2022/06/14 09:53:53;;;;;;;3.13;2.00;;;25.20;99.90;;;;;;5094827;28;20447;-80
2022/06/14 09:56:54;;;;;;;6.77;2.03;;;25.20;99.20;;;;;;5095969;28;20482;-80
2022/06/14 09:59:51;;;;;;;4.83;2.27;;;25.30;99.00;;;;;;5097516;28;20446;-79
2022/06/14 10:02:29;;;;;;;7.80;2.10;;;25.40;99.10;;;;;;5099697;28;20438;-79
2022/06/14 10:05:13;;;;;;;4.37;2.40;;;25.50;99.20;;;;;;5100900;28;20865;-79
2022/06/14 10:07:56;;;;;;;2.17;1.97;;;25.90;99.10;;;;;;5097069;28;20465;-79
2022/06/14 10:10:39;;;;;;;4.97;2.10;;;25.90;98.90;;;;;;5097757;28;20488;-79
2022/06/14 10:13:36;;;;;;;9.43;2.90;;;26.20;98.30;;;;;;5098805;28;20542;-79
2022/06/14 10:16:16;;;;;;;8.60;2.90;;;26.20;98.00;;;;;;5096943;28;20450;-79
2022/06/14 10:19:03;;;;;;;4.83;2.20;;;26.20;97.90;;;;;;5100423;28;20496;-79
2022/06/14 10:21:37;;;;;;;7.80;2.43;;;26.30;97.90;;;;;;5100503;28;20535;-79
2022/06/14 10:24:16;;;;;;;7.40;2.67;;;26.30;97.10;;;;;;5098603;28;20482;-79
2022/06/14 10:29:58;;;;;;;2.50;2.10;;;26.20;97.40;;;;;;5096273;28;20445;-80
2022/06/14 10:32:53;;;;;;;4.17;2.50;;;26.00;97.40;;;;;;5094095;28;20867;-79
2022/06/14 10:35:28;;;;;;;5.97;2.20;;;25.90;96.90;;;;;;5075863;28;20455;-78
2022/06/14 10:38:15;;;;;;;4.97;2.80;;;25.40;97.10;;;;;;5075580;28;20486;-79
2022/06/14 10:40:52;;;;;;;4.30;2.60;;;25.20;98.20;;;;;;5078488;28;20471;-78
2022/06/14 10:43:28;;;;;;;3.93;2.60;;;25.10;97.60;;;;;;5087838;28;20446;-78
2022/06/14 10:46:00;;;;;;;5.43;1.60;;;25.10;97.90;;;;;;5097535;28;20504;-79
2022/06/14 10:48:50;;;;;;;3.67;2.10;;;25.50;98.50;;;;;;5099573;28;20439;-78
2022/06/14 10:51:30;;;;;;;5.50;2.43;;;25.60;97.90;;;;;;5098795;28;20478;-78
2022/06/14 10:54:00;;;;;;;7.33;2.30;;;25.50;97.10;;;;;;5094072;28;20503;-78
2022/06/14 10:56:52;;;;;;;3.30;2.23;;;25.30;98.20;;;;;;5095100;28;20667;-78
2022/06/14 10:59:44;;;;;;;6.20;2.90;;;25.30;97.70;;;;;;5094683;28;20450;-78
2022/06/14 11:02:24;;;;;;;3.20;2.07;;;25.40;97.10;;;;;;5078933;28;20873;-78
2022/06/14 11:04:58;;;;;;;3.97;2.10;;;25.50;96.90;;;;;;5096006;28;20460;-78
2022/06/14 11:07:52;;;;;;;3.63;2.37;;;25.50;97.40;;;;;;5095415;28;20447;-79
2022/06/14 11:10:49;;;;;;;8.20;2.30;;;25.30;96.70;;;;;;5099310;28;20474;-78
2022/06/14 11:13:24;;;;;;;4.03;2.20;;;25.40;96.80;;;;;;5098994;28;20502;-79
2022/06/14 11:15:56;;;;;;;2.67;1.80;;;25.50;96.40;;;;;;5101076;28;20503;-78
2022/06/14 11:18:45;;;;;;;7.37;2.30;;;26.10;97.30;;;;;;5101385;28;20483;-78
2022/06/14 11:21:34;;;;;;;3.87;2.00;;;26.60;96.40;;;;;;5074939;28;20483;-79
2022/06/14 11:24:09;;;;;;;9.53;7.13;;;27.00;97.00;;;;;;5100877;28;20533;-79
2022/06/14 11:26:46;;;;;;;5.27;2.70;;;27.20;95.70;;;;;;5101147;28;20454;-78
2022/06/14 11:29:21;;;;;;;4.50;1.90;;;26.90;95.00;;;;;;5100166;28;20514;-78
2022/06/14 11:31:53;;;;;;;4.40;1.90;;;26.90;96.10;;;;;;5100540;28;20450;-78
2022/06/14 11:34:44;;;;;;;2.60;1.67;;;27.10;95.00;;;;;;5099728;28;20446;-78
2022/06/14 11:37:36;;;;;;;4.43;2.03;;;26.90;93.60;;;;;;5099268;28;20486;-79
2022/06/14 11:40:08;;;;;;;6.47;2.30;;;26.80;95.30;;;;;;5101198;28;20470;-79
2022/06/14 11:42:42;;;;;;;4.03;2.20;;;27.00;94.40;;;;;;5099903;28;20911;-79
2022/06/14 11:45:31;;;;;;;5.73;1.70;;;27.50;95.60;;;;;;5103285;28;20451;-78
2022/06/14 11:48:10;;;;;;;5.67;2.07;;;28.00;94.50;;;;;;5103430;28;20442;-79
2022/06/14 11:50:45;;;;;;;3.17;1.90;;;28.30;93.20;;;;;;5101737;28;20466;-78
2022/06/14 11:53:36;;;;;;;8.60;1.70;;;28.30;93.10;;;;;;5094705;28;20559;-78
2022/06/14 11:56:08;;;;;;;4.50;1.90;;;27.80;93.30;;;;;;5098692;28;20453;-78
2022/06/14 11:58:54;;;;;;;2.93;1.80;;;27.60;94.40;;;;;;5100918;28;20486;-78
2022/06/14 12:01:31;;;;;;;4.53;1.80;;;27.80;93.10;;;;;;5101074;28;20474;-78
2022/06/14 12:04:14;;;;;;;2.77;1.73;;;27.90;93.50;;;;;;5097601;28;20434;-79
2022/06/14 12:06:51;;;;;;;4.83;1.87;;;28.10;92.60;;;;;;5101321;28;20507;-78
2022/06/14 12:09:34;;;;;;;7.47;2.00;;;28.50;93.10;;;;;;5102448;28;20472;-79
2022/06/14 12:12:08;;;;;;;4.50;1.93;;;28.30;91.30;;;;;;5099671;28;20474;-79
2022/06/14 12:15:01;;;;;;;3.60;1.93;;;28.00;92.30;;;;;;5101605;28;20942;-78
2022/06/14 12:17:31;;;;;;;5.47;1.97;;;27.90;92.00;;;;;;5097605;28;20482;-78
2022/06/14 12:20:05;;;;;;;11.70;1.93;;;27.80;91.80;;;;;;5099509;28;20541;-79
2022/06/14 12:22:45;;;;;;;3.10;2.10;;;27.80;91.80;;;;;;5098053;28;20500;-78
2022/06/14 12:28:09;;;;;;;4.03;1.90;;;27.80;91.50;;;;;;5100344;28;20430;-78
2022/06/14 12:30:37;;;;;;;3.53;2.00;;;27.50;92.20;;;;;;5099951;28;20561;-78
2022/06/14 12:33:09;;;;;;;4.03;1.87;;;27.50;91.80;;;;;;5097763;28;20508;-78
2022/06/14 12:35:41;;;;;;;4.80;1.60;;;27.50;92.70;;;;;;5098970;28;20451;-78
2022/06/14 12:38:17;;;;;;;4.43;1.97;;;27.50;92.50;;;;;;5098200;28;20488;-78
2022/06/14 12:40:48;;;;;;;3.43;2.40;;;27.60;92.00;;;;;;5100850;28;20477;-78
2022/06/14 12:43:18;;;;;;;2.63;1.70;;;27.90;90.80;;;;;;5096828;28;20508;-79
2022/06/14 12:45:50;;;;;;;3.50;1.70;;;28.10;91.80;;;;;;5097550;28;20500;-78
2022/06/14 12:48:32;;;;;;;2.57;2.00;;;28.20;90.50;;;;;;5100114;28;20447;-78
2022/06/14 12:51:02;;;;;;;4.60;1.80;;;28.10;89.50;;;;;;5099312;28;20488;-78
2022/06/14 12:53:38;;;;;;;5.90;1.97;;;27.50;90.50;;;;;;5096572;28;20443;-79
2022/06/14 12:56:13;;;;;;;3.13;1.90;;;27.80;90.20;;;;;;5100023;28;20950;-78
2022/06/14 12:58:48;;;;;;;3.70;1.67;;;28.20;89.70;;;;;;5100306;28;20490;-78
2022/06/14 13:01:22;;;;;;;4.70;1.90;;;28.30;88.00;;;;;;5097187;28;20470;-78
2022/06/14 13:03:54;;;;;;;5.83;2.17;;;28.10;87.20;;;;;;5095622;28;20477;-78
2022/06/14 13:06:54;;;;;;;2.93;1.80;;;28.00;88.90;;;;;;5097627;28;20450;-78
2022/06/14 13:09:30;;;;;;;2.83;1.70;;;28.00;87.00;;;;;;5097094;28;20476;-78
2022/06/14 13:12:09;;;;;;;9.40;2.00;;;27.60;87.10;;;;;;5093914;28;20487;-78
2022/06/14 13:14:41;;;;;;;5.43;1.90;;;27.40;87.20;;;;;;5078664;28;20482;-78
2022/06/14 13:17:21;;;;;;;4.17;1.97;;;27.50;88.40;;;;;;5078947;28;20853;-78
2022/06/14 13:19:54;;;;;;;5.23;1.80;;;27.70;85.30;;;;;;5086060;28;20467;-78
2022/06/14 13:22:43;;;;;;;2.90;2.23;;;27.90;86.10;;;;;;5091968;28;20520;-79
2022/06/14 13:25:23;;;;;;;6.10;1.90;;;27.80;86.50;;;;;;5097616;28;20474;-78
2022/06/14 13:27:56;;;;;;;3.07;1.90;;;27.90;86.20;;;;;;5096963;28;20526;-78
2022/06/14 13:30:33;;;;;;;3.70;1.70;;;27.90;84.80;;;;;;5096311;28;20471;-78
2022/06/14 13:33:14;;;;;;;3.30;1.70;;;27.80;85.80;;;;;;5094229;28;20462;-78
2022/06/14 13:35:53;;;;;;;2.77;1.60;;;28.10;84.60;;;;;;5097621;28;20450;-78
2022/06/14 13:38:27;;;;;;;3.33;1.87;;;28.30;86.00;;;;;;5097422;28;20577;-78
2022/06/14 13:41:00;;;;;;;7.20;2.10;;;28.30;83.70;;;;;;5097310;28;20450;-78
2022/06/14 13:43:34;;;;;;;4.37;1.80;;;28.60;85.70;;;;;;5095554;28;20866;-78